createdAt,value
2022-10-18T00:00:06.089Z,101575.88
2022-10-18T00:02:35.272Z,101570.50
2022-10-18T00:05:01.929Z,101570.50
2022-10-18T00:07:29.105Z,101574.09
2022-10-18T00:09:55.943Z,101582.13
2022-10-18T00:12:22.597Z,101576.78
2022-10-18T00:14:50.927Z,101575.88
2022-10-18T00:17:18.228Z,101562.50
2022-10-18T00:19:44.937Z,101570.53
2022-10-18T00:22:11.493Z,101561.63
2022-10-18T00:24:38.018Z,101565.16
2022-10-18T00:27:04.573Z,101557.16
2022-10-18T00:29:31.186Z,101558.91
2022-10-18T00:31:57.823Z,101568.72
2022-10-18T00:34:24.731Z,101571.38
2022-10-18T00:36:51.278Z,101567.81
2022-10-18T00:39:20.513Z,101575.84
2022-10-18T00:41:47.937Z,101574.94
2022-10-18T00:44:17.447Z,101574.06
2022-10-18T00:46:47.488Z,101577.59
2022-10-18T00:49:40.940Z,101574.03
2022-10-18T00:52:11.707Z,101581.16
2022-10-18T00:54:40.229Z,101581.16
2022-10-18T00:57:07.804Z,101581.16
2022-10-18T00:59:34.970Z,101585.59
2022-10-18T01:02:02.271Z,101583.84
2022-10-18T01:04:28.937Z,101579.34
2022-10-18T01:07:25.532Z,101580.25
2022-10-18T01:10:04.456Z,101591.81
2022-10-18T01:12:56.070Z,101582.94
2022-10-18T01:15:38.291Z,101586.47
2022-10-18T01:18:17.045Z,101590.06
2022-10-18T01:20:56.024Z,101590.06
2022-10-18T01:23:48.624Z,101593.59
2022-10-18T01:26:46.770Z,101595.41
2022-10-18T01:29:41.311Z,101595.41
2022-10-18T01:32:26.999Z,101590.94
2022-10-18T01:34:59.282Z,101587.38
2022-10-18T01:37:27.660Z,101588.25
2022-10-18T01:39:57.477Z,101591.78
2022-10-18T01:42:25.250Z,101601.63
2022-10-18T01:44:53.622Z,101598.03
2022-10-18T01:47:21.492Z,101592.69
2022-10-18T01:49:48.156Z,101590.91
2022-10-18T01:52:16.639Z,101590.03
2022-10-18T01:54:49.079Z,101582.88
2022-10-18T01:57:42.788Z,101573.09
2022-10-18T02:00:18.016Z,101574.84
2022-10-18T02:03:06.800Z,101574.00
2022-10-18T02:05:43.998Z,101570.41
2022-10-18T02:08:33.501Z,101569.53
2022-10-18T02:11:02.340Z,101565.97
2022-10-18T02:14:03.159Z,101560.63
2022-10-18T02:16:41.654Z,101558.84
2022-10-18T02:19:32.715Z,101554.38
2022-10-18T02:22:00.024Z,101556.19
2022-10-18T02:24:34.622Z,101560.63
2022-10-18T02:27:02.079Z,101560.63
2022-10-18T02:29:29.676Z,101557.97
2022-10-18T02:32:21.470Z,101564.16
2022-10-18T02:34:57.096Z,101558.81
2022-10-18T02:39:53.254Z,101559.72
2022-10-18T02:42:19.785Z,101560.59
2022-10-18T02:44:46.359Z,101548.13
2022-10-18T02:47:13.077Z,101539.22
2022-10-18T02:49:40.041Z,101546.34
2022-10-18T02:52:07.056Z,101543.66
2022-10-18T02:54:33.641Z,101539.22
2022-10-18T02:57:00.372Z,101541.00
2022-10-18T02:59:26.956Z,101537.41
2022-10-18T03:01:53.557Z,101537.41
2022-10-18T03:04:20.197Z,101532.94
2022-10-18T03:06:46.887Z,101531.19
2022-10-18T03:09:13.603Z,101532.94
2022-10-18T03:11:40.167Z,101532.94
2022-10-18T03:14:06.705Z,101535.63
2022-10-18T03:16:34.178Z,101535.63
2022-10-18T03:19:00.953Z,101535.63
2022-10-18T03:21:27.539Z,101528.50
2022-10-18T03:23:54.073Z,101534.72
2022-10-18T03:26:21.541Z,101536.47
2022-10-18T03:28:48.198Z,101532.03
2022-10-18T03:31:14.704Z,101530.25
2022-10-18T03:33:41.222Z,101529.38
2022-10-18T03:36:08.140Z,101521.31
2022-10-18T03:38:34.710Z,101525.81
2022-10-18T03:41:01.320Z,101529.34
2022-10-18T03:43:27.834Z,101531.16
2022-10-18T03:45:54.602Z,101524.03
2022-10-18T03:48:21.559Z,101537.38
2022-10-18T03:50:48.097Z,101542.72
2022-10-18T03:53:14.711Z,101539.16
2022-10-18T03:55:41.278Z,101531.19
2022-10-18T03:58:07.857Z,101517.81
2022-10-18T04:00:34.921Z,101523.16
2022-10-18T04:03:01.496Z,101517.81
2022-10-18T04:05:30.679Z,101524.97
2022-10-18T04:07:57.729Z,101522.28
2022-10-18T04:10:24.325Z,101520.47
2022-10-18T04:12:50.979Z,101531.16
2022-10-18T04:15:18.305Z,101525.84
2022-10-18T04:17:44.813Z,101522.25
2022-10-18T04:20:11.926Z,101522.25
2022-10-18T04:22:38.449Z,101523.13
2022-10-18T04:25:05.358Z,101525.81
2022-10-18T04:27:32.302Z,101519.56
2022-10-18T04:29:59.074Z,101522.22
2022-10-18T04:32:27.791Z,101520.47
2022-10-18T04:34:54.402Z,101530.25
2022-10-18T04:37:20.884Z,101522.22
2022-10-18T04:39:51.231Z,101515.13
2022-10-18T04:42:20.887Z,101515.13
2022-10-18T04:44:47.550Z,101521.34
2022-10-18T04:47:14.101Z,101528.47
2022-10-18T04:49:40.623Z,101525.81
2022-10-18T04:52:07.261Z,101529.38
2022-10-18T04:54:33.847Z,101522.22
2022-10-18T04:57:00.624Z,101525.81
2022-10-18T04:59:27.214Z,101532.94
2022-10-18T05:01:53.834Z,101526.69
2022-10-18T05:04:20.713Z,101529.38
2022-10-18T05:06:47.290Z,101527.56
2022-10-18T05:09:14.187Z,101519.56
2022-10-18T05:11:40.777Z,101515.97
2022-10-18T05:14:10.158Z,101522.19
2022-10-18T05:16:36.841Z,101527.53
2022-10-18T05:19:05.596Z,101531.94
2022-10-18T05:21:32.835Z,101536.38
2022-10-18T05:23:59.562Z,101525.69
2022-10-18T05:26:26.172Z,101527.50
2022-10-18T05:28:52.820Z,101531.03
2022-10-18T05:31:19.394Z,101523.03
2022-10-18T05:33:45.925Z,101531.03
2022-10-18T05:36:12.620Z,101531.03
2022-10-18T05:38:42.655Z,101538.19
2022-10-18T05:41:09.868Z,101538.19
2022-10-18T05:43:36.425Z,101529.25
2022-10-18T05:46:04.732Z,101530.16
2022-10-18T05:48:31.449Z,101538.19
2022-10-18T05:50:59.473Z,101542.63
2022-10-18T05:53:42.181Z,101543.53
2022-10-18T05:56:09.145Z,101541.72
2022-10-18T05:58:36.178Z,101556.88
2022-10-18T06:01:04.823Z,101554.22
2022-10-18T06:03:32.202Z,101560.44
2022-10-18T06:06:04.532Z,101555.16
2022-10-18T06:08:31.639Z,101564.06
2022-10-18T06:10:58.411Z,101564.94
2022-10-18T06:13:24.960Z,101565.84
2022-10-18T06:15:56.163Z,101568.50
2022-10-18T06:18:22.677Z,101573.84
2022-10-18T06:20:49.231Z,101579.19
2022-10-18T06:23:15.722Z,101570.31
2022-10-18T06:25:42.207Z,101572.97
2022-10-18T06:28:10.220Z,101564.97
2022-10-18T06:30:38.811Z,101572.13
2022-10-18T06:33:05.441Z,101575.66
2022-10-18T06:35:31.965Z,101573.03
2022-10-18T06:37:58.608Z,101582.81
2022-10-18T06:40:25.207Z,101582.81
2022-10-18T06:43:00.692Z,101573.88
2022-10-18T06:45:37.154Z,101577.41
2022-10-18T06:48:03.781Z,101579.22
2022-10-18T06:50:30.253Z,101573.88
2022-10-18T06:52:56.723Z,101573.88
2022-10-18T06:55:23.511Z,101581.91
2022-10-18T06:57:50.257Z,101580.09
2022-10-18T07:00:17.046Z,101572.06
2022-10-18T07:02:43.602Z,101581.00
2022-10-18T07:05:11.410Z,101570.28
2022-10-18T07:07:37.974Z,101580.94
2022-10-18T07:10:05.169Z,101583.59
2022-10-18T07:12:32.653Z,101586.25
2022-10-18T07:14:59.508Z,101589.78
2022-10-18T07:17:26.839Z,101596.88
2022-10-18T07:19:53.493Z,101590.63
2022-10-18T07:22:19.981Z,101591.50
2022-10-18T07:24:46.591Z,101593.31
2022-10-18T07:27:13.106Z,101595.97
2022-10-18T07:29:40.641Z,101596.84
2022-10-18T07:32:07.130Z,101594.16
2022-10-18T07:34:33.705Z,101606.66
2022-10-18T07:37:01.881Z,101598.66
2022-10-18T07:39:28.379Z,101603.09
2022-10-18T07:41:54.897Z,101605.75
2022-10-18T07:44:21.713Z,101598.66
2022-10-18T07:46:48.327Z,101608.47
2022-10-18T07:49:14.860Z,101604.03
2022-10-18T07:51:41.350Z,101604.94
2022-10-18T07:54:08.825Z,101612.13
2022-10-18T07:56:35.495Z,101612.16
2022-10-18T07:59:02.138Z,101601.50
2022-10-18T08:01:28.881Z,101603.31
2022-10-18T08:03:55.505Z,101604.22
2022-10-18T08:06:23.010Z,101606.88
2022-10-18T08:08:49.809Z,101601.59
2022-10-18T08:11:21.980Z,101598.91
2022-10-18T08:13:48.936Z,101602.44
2022-10-18T08:16:19.084Z,101592.66
2022-10-18T08:18:45.879Z,101594.47
2022-10-18T08:21:14.610Z,101598.91
2022-10-18T08:23:41.947Z,101598.03
2022-10-18T08:26:11.470Z,101598.94
2022-10-18T08:28:38.817Z,101600.72
2022-10-18T08:31:07.468Z,101594.47
2022-10-18T08:33:35.860Z,101590.03
2022-10-18T08:36:07.739Z,101582.91
2022-10-18T08:38:36.656Z,101584.72
2022-10-18T08:41:42.465Z,101585.56
2022-10-18T08:44:20.789Z,101590.06
2022-10-18T08:46:59.836Z,101583.84
2022-10-18T08:49:36.156Z,101590.97
2022-10-18T08:52:06.179Z,101588.31
2022-10-18T08:54:44.249Z,101591.03
2022-10-18T08:57:18.080Z,101594.59
2022-10-18T08:59:44.696Z,101593.69
2022-10-18T09:02:16.972Z,101594.59
2022-10-18T09:05:00.034Z,101595.50
2022-10-18T09:07:45.032Z,101599.13
2022-10-18T09:10:20.173Z,101600.03
2022-10-18T09:13:08.774Z,101602.69
2022-10-18T09:15:45.867Z,101608.03
2022-10-18T09:18:17.690Z,101599.13
2022-10-18T09:20:56.562Z,101605.38
2022-10-18T09:23:56.526Z,101595.53
2022-10-18T09:26:24.324Z,101590.16
2022-10-18T09:29:10.687Z,101598.22
2022-10-18T09:31:50.578Z,101600.00
2022-10-18T09:34:25.857Z,101598.22
2022-10-18T09:36:53.644Z,101608.94
2022-10-18T09:39:25.640Z,101616.94
2022-10-18T09:42:04.087Z,101609.81
2022-10-18T09:44:39.922Z,101607.16
2022-10-18T09:47:23.227Z,101614.28
2022-10-18T09:49:57.965Z,101614.28
2022-10-18T09:52:45.624Z,101621.41
2022-10-18T09:55:24.043Z,101624.97
2022-10-18T09:57:55.574Z,101624.09
2022-10-18T10:00:31.719Z,101634.78
2022-10-18T10:03:01.341Z,101633.00
2022-10-18T10:05:28.149Z,101627.66
2022-10-18T10:07:59.907Z,101631.19
2022-10-18T10:10:29.550Z,101630.31
2022-10-18T10:13:26.152Z,101630.31
2022-10-18T10:15:58.201Z,101637.47
2022-10-18T10:18:43.833Z,101627.66
2022-10-18T10:21:16.042Z,101629.44
2022-10-18T10:23:50.903Z,101629.44
2022-10-18T10:26:20.501Z,101630.34
2022-10-18T10:28:48.849Z,101648.19
2022-10-18T10:31:24.809Z,101638.41
2022-10-18T10:34:14.691Z,101649.09
2022-10-18T10:36:53.023Z,101641.09
2022-10-18T10:39:21.660Z,101644.63
2022-10-18T10:41:50.493Z,101641.97
2022-10-18T10:44:25.011Z,101640.16
2022-10-18T10:46:52.971Z,101642.88
2022-10-18T10:49:39.598Z,101641.06
2022-10-18T10:52:27.003Z,101638.38
2022-10-18T10:55:05.777Z,101632.09
2022-10-18T10:57:46.131Z,101632.09
2022-10-18T11:00:36.596Z,101630.31
2022-10-18T11:03:34.019Z,101636.56
2022-10-18T11:06:01.808Z,101631.22
2022-10-18T11:08:33.961Z,101638.34
2022-10-18T11:11:22.920Z,101626.72
2022-10-18T11:14:07.310Z,101623.16
2022-10-18T11:16:57.121Z,101626.72
2022-10-18T11:19:34.629Z,101625.84
2022-10-18T11:22:05.910Z,101632.09
2022-10-18T11:24:35.441Z,101628.53
2022-10-18T11:27:10.723Z,101634.78
2022-10-18T11:29:48.082Z,101627.63
2022-10-18T11:32:34.083Z,101626.72
2022-10-18T11:35:38.941Z,101639.16
2022-10-18T11:38:19.036Z,101635.59
2022-10-18T11:40:57.959Z,101627.59
2022-10-18T11:44:02.109Z,101624.09
2022-10-18T11:46:56.901Z,101614.28
2022-10-18T11:50:02.513Z,101610.72
2022-10-18T11:52:51.636Z,101616.09
2022-10-18T11:55:38.507Z,101616.97
2022-10-18T11:58:19.978Z,101623.19
2022-10-18T12:00:52.139Z,101613.41
2022-10-18T12:03:42.724Z,101608.03
2022-10-18T12:06:17.073Z,101600.91
2022-10-18T12:08:50.897Z,101597.34
2022-10-18T12:11:31.997Z,101607.13
2022-10-18T12:14:04.746Z,101592.00
2022-10-18T12:16:50.958Z,101600.00
2022-10-18T12:19:27.019Z,101599.13
2022-10-18T12:21:58.191Z,101589.28
2022-10-18T12:24:32.305Z,101591.03
2022-10-18T12:27:01.436Z,101593.72
2022-10-18T12:29:31.670Z,101600.84
2022-10-18T12:32:14.868Z,101593.72
2022-10-18T12:34:54.717Z,101584.81
2022-10-18T12:37:49.391Z,101581.22
2022-10-18T12:40:41.110Z,101583.03
2022-10-18T12:43:10.834Z,101579.44
2022-10-18T12:45:59.113Z,101582.19
2022-10-18T12:48:42.565Z,101580.38
2022-10-18T12:51:20.143Z,101582.19
2022-10-18T12:53:49.393Z,101579.50
2022-10-18T12:56:27.881Z,101584.84
2022-10-18T12:59:16.079Z,101574.13
2022-10-18T13:01:51.681Z,101574.06
2022-10-18T13:04:27.161Z,101575.84
2022-10-18T13:06:59.835Z,101573.13
2022-10-18T13:09:59.137Z,101576.66
2022-10-18T13:12:28.783Z,101573.94
2022-10-18T13:15:26.991Z,101569.41
2022-10-18T13:18:03.210Z,101581.84
2022-10-18T13:20:44.412Z,101578.22
2022-10-18T13:23:38.669Z,101580.91
2022-10-18T13:26:37.725Z,101588.03
2022-10-18T13:29:13.470Z,101584.47
2022-10-18T13:31:47.704Z,101584.56
2022-10-18T13:34:32.921Z,101581.94
2022-10-18T13:37:19.715Z,101582.84
2022-10-18T13:39:46.628Z,101584.66
2022-10-18T13:42:15.897Z,101597.22
2022-10-18T13:44:44.706Z,101586.53
2022-10-18T13:47:14.829Z,101596.38
2022-10-18T13:50:03.026Z,101595.50
2022-10-18T13:52:47.688Z,101589.22
2022-10-18T13:55:26.469Z,101591.03
2022-10-18T13:58:21.115Z,101592.84
2022-10-18T14:00:59.633Z,101591.06
2022-10-18T14:03:56.981Z,101601.81
2022-10-18T14:06:28.206Z,101600.91
2022-10-18T14:12:39.644Z,101606.25
2022-10-18T14:15:26.640Z,101614.31
2022-10-18T14:18:05.437Z,101607.16
2022-10-18T14:20:55.161Z,101611.63
2022-10-18T14:23:36.579Z,101613.41
2022-10-18T14:26:14.777Z,101621.44
2022-10-18T14:28:59.011Z,101633.91
2022-10-18T14:31:27.408Z,101627.69
2022-10-18T14:33:57.971Z,101637.47
2022-10-18T14:36:34.747Z,101636.56
2022-10-18T14:39:03.919Z,101639.25
2022-10-18T14:41:33.263Z,101639.19
2022-10-18T14:44:31.068Z,101632.06
2022-10-18T14:47:02.585Z,101641.84
2022-10-18T14:49:29.721Z,101638.28
2022-10-18T14:51:59.305Z,101641.84
2022-10-18T14:54:37.067Z,101637.34
2022-10-18T14:57:05.735Z,101645.34
2022-10-18T14:59:45.164Z,101643.53
2022-10-18T15:02:17.518Z,101641.78
2022-10-18T15:04:45.740Z,101636.41
2022-10-18T15:07:18.093Z,101639.94
2022-10-18T15:09:46.928Z,101639.03
2022-10-18T15:12:15.998Z,101638.13
2022-10-18T15:14:43.641Z,101639.00
2022-10-18T15:17:21.548Z,101645.25
2022-10-18T15:19:56.098Z,101648.78
2022-10-18T15:22:33.062Z,101639.84
2022-10-18T15:25:05.534Z,101646.97
2022-10-18T15:27:36.867Z,101650.50
2022-10-18T15:30:19.963Z,101646.91
2022-10-18T15:32:49.759Z,101648.66
2022-10-18T15:35:24.994Z,101646.78
2022-10-18T15:37:53.565Z,101640.53
2022-10-18T15:40:23.130Z,101639.63
2022-10-18T15:42:55.499Z,101644.91
2022-10-18T15:45:25.005Z,101635.97
2022-10-18T15:48:00.495Z,101643.94
2022-10-18T15:50:47.666Z,101642.09
2022-10-18T15:53:41.987Z,101635.84
2022-10-18T15:56:31.388Z,101636.63
2022-10-18T15:59:00.789Z,101641.88
2022-10-18T16:01:56.215Z,101647.16
2022-10-18T16:04:29.153Z,101655.09
2022-10-18T16:06:57.252Z,101644.34
2022-10-18T16:09:26.382Z,101646.03
2022-10-18T16:11:57.044Z,101647.75
2022-10-18T16:14:25.317Z,101640.50
2022-10-18T16:16:55.012Z,101648.44
2022-10-18T16:19:22.870Z,101651.03
2022-10-18T16:21:51.142Z,101650.91
2022-10-18T16:24:18.840Z,101657.00
2022-10-18T16:26:45.631Z,101658.72
2022-10-18T16:29:15.504Z,101656.84
2022-10-18T16:31:42.489Z,101654.97
2022-10-18T16:34:11.980Z,101655.69
2022-10-18T16:36:38.694Z,101664.50
2022-10-18T16:39:10.248Z,101665.28
2022-10-18T16:41:36.798Z,101670.50
2022-10-18T16:44:03.957Z,101674.84
2022-10-18T16:46:32.763Z,101670.31
2022-10-18T16:49:00.252Z,101677.38
2022-10-18T16:51:27.348Z,101683.44
2022-10-18T16:53:54.719Z,101686.91
2022-10-18T16:56:25.220Z,101690.38
2022-10-18T16:58:52.696Z,101691.16
2022-10-18T17:01:21.600Z,101692.91
2022-10-18T17:03:51.069Z,101692.88
2022-10-18T17:06:29.363Z,101699.00
2022-10-18T17:08:57.063Z,101699.81
2022-10-18T17:11:26.732Z,101700.63
2022-10-18T17:13:55.959Z,101709.44
2022-10-18T17:16:31.586Z,101702.22
2022-10-18T17:19:00.447Z,101717.16
2022-10-18T17:21:28.218Z,101718.84
2022-10-18T17:24:00.386Z,101716.94
2022-10-18T17:26:29.292Z,101721.22
2022-10-18T17:29:02.972Z,101726.44
2022-10-18T17:31:30.952Z,101721.91
2022-10-18T17:33:58.784Z,101726.19
2022-10-18T17:36:26.062Z,101728.72
2022-10-18T17:38:56.095Z,101743.63
2022-10-18T17:41:22.979Z,101738.19
2022-10-18T17:43:49.650Z,101748.69
2022-10-18T17:46:17.785Z,101747.63
2022-10-18T17:48:44.603Z,101747.50
2022-10-18T17:51:14.041Z,101747.34
2022-10-18T17:53:40.653Z,101756.13
2022-10-18T17:56:07.888Z,101753.41
2022-10-18T17:58:35.021Z,101758.69
2022-10-18T18:01:15.503Z,101755.06
2022-10-18T18:03:42.120Z,101761.16
2022-10-18T18:06:17.906Z,101770.78
2022-10-18T18:08:45.741Z,101769.78
2022-10-18T18:11:13.262Z,101767.88
2022-10-18T18:13:39.943Z,101780.09
2022-10-18T18:16:21.745Z,101784.38
2022-10-18T18:18:50.764Z,101786.09
2022-10-18T18:21:17.362Z,101789.63
2022-10-18T18:23:44.553Z,101791.41
2022-10-18T18:26:14.270Z,101783.38
2022-10-18T18:28:41.209Z,101783.28
2022-10-18T18:31:14.360Z,101781.44
2022-10-18T18:33:41.352Z,101777.84
2022-10-18T18:36:09.124Z,101767.97
2022-10-18T18:38:38.005Z,101779.31
2022-10-18T18:41:08.992Z,101767.72
2022-10-18T18:43:37.396Z,101778.22
2022-10-18T18:46:04.889Z,101769.34
2022-10-18T18:48:33.193Z,101765.66
2022-10-18T18:51:00.184Z,101772.63
2022-10-18T18:53:29.392Z,101767.22
2022-10-18T18:56:05.003Z,101774.25
2022-10-18T18:58:32.283Z,101766.16
2022-10-18T19:00:59.163Z,101769.66
2022-10-18T19:03:25.681Z,101764.31
2022-10-18T19:06:02.294Z,101766.81
2022-10-18T19:08:28.872Z,101777.34
2022-10-18T19:10:55.376Z,101769.25
2022-10-18T19:13:22.322Z,101774.47
2022-10-18T19:15:48.884Z,101761.03
2022-10-18T19:18:15.772Z,101773.31
2022-10-18T19:20:44.059Z,101774.03
2022-10-18T19:23:10.595Z,101772.19
2022-10-18T19:25:37.111Z,101769.38
2022-10-18T19:28:03.709Z,101770.13
2022-10-18T19:30:30.242Z,101767.41
2022-10-18T19:33:03.956Z,101770.91
2022-10-18T19:35:32.852Z,101775.28
2022-10-18T19:37:59.371Z,101762.81
2022-10-18T19:40:25.982Z,101767.16
2022-10-18T19:42:52.604Z,101772.38
2022-10-18T19:45:19.115Z,101779.38
2022-10-18T19:47:45.632Z,101777.56
2022-10-18T19:50:12.156Z,101788.16
2022-10-18T19:52:38.712Z,101782.00
2022-10-18T19:55:05.884Z,101780.13
2022-10-18T19:57:32.421Z,101792.50
2022-10-18T20:00:00.716Z,101799.66
2022-10-18T20:02:30.021Z,101796.22
2022-10-18T20:04:56.991Z,101807.84
2022-10-18T20:07:23.487Z,101806.13
2022-10-18T20:09:50.197Z,101809.63
2022-10-18T20:12:16.712Z,101807.69
2022-10-18T20:14:43.240Z,101811.16
2022-10-18T20:17:12.840Z,101819.88
2022-10-18T20:19:39.472Z,101811.00
2022-10-18T20:22:06.052Z,101819.88
2022-10-18T20:24:32.607Z,101819.94
2022-10-18T20:26:59.134Z,101809.47
2022-10-18T20:29:28.926Z,101816.53
2022-10-18T20:31:55.739Z,101823.63
2022-10-18T20:34:25.935Z,101827.13
2022-10-18T20:36:55.704Z,101822.72
2022-10-18T20:39:22.712Z,101826.22
2022-10-18T20:41:49.326Z,101822.63
2022-10-18T20:47:01.340Z,101816.50
2022-10-18T20:49:28.096Z,101808.56
2022-10-18T20:51:54.659Z,101811.06
2022-10-18T20:54:21.305Z,101809.19
2022-10-18T20:56:47.803Z,101809.06
2022-10-18T20:59:14.739Z,101807.28
2022-10-18T21:01:41.447Z,101806.31
2022-10-18T21:04:11.761Z,101802.78
2022-10-18T21:06:41.187Z,101801.91
2022-10-18T21:09:13.730Z,101801.91
2022-10-18T21:11:42.435Z,101816.19
2022-10-18T21:14:14.586Z,101822.50
2022-10-18T21:16:41.755Z,101821.84
2022-10-18T21:19:12.900Z,101822.09
2022-10-18T21:21:41.642Z,101817.06
2022-10-18T21:24:08.397Z,101804.97
2022-10-18T21:26:35.824Z,101814.00
2022-10-18T21:29:04.032Z,101804.38
2022-10-18T21:31:32.832Z,101812.41
2022-10-18T21:34:01.968Z,101803.69
2022-10-18T21:36:35.035Z,101808.25
2022-10-18T21:39:07.746Z,101805.69
2022-10-18T21:41:35.342Z,101804.88
2022-10-18T21:44:05.643Z,101801.47
2022-10-18T21:46:35.738Z,101810.41
2022-10-18T21:49:02.312Z,101799.81
2022-10-18T21:51:28.906Z,101803.47
2022-10-18T21:53:56.915Z,101804.44
2022-10-18T21:56:29.346Z,101806.31
2022-10-18T21:58:56.811Z,101802.78
2022-10-18T22:01:29.443Z,101805.47
2022-10-18T22:03:56.746Z,101802.91
2022-10-18T22:06:24.959Z,101805.63
2022-10-18T22:08:56.686Z,101813.63
2022-10-18T22:11:27.676Z,101811.00
2022-10-18T22:13:54.694Z,101801.31
2022-10-18T22:16:21.685Z,101796.00
2022-10-18T22:18:49.615Z,101796.88
2022-10-18T22:21:18.329Z,101799.44
2022-10-18T22:23:47.465Z,101797.59
2022-10-18T22:26:20.636Z,101800.16
2022-10-18T22:28:48.191Z,101799.19
2022-10-18T22:31:22.550Z,101793.81
2022-10-18T22:34:04.042Z,101797.28
2022-10-18T22:36:31.357Z,101800.78
2022-10-18T22:38:58.166Z,101799.78
2022-10-18T22:41:24.858Z,101801.34
2022-10-18T22:43:52.344Z,101798.69
2022-10-18T22:46:19.085Z,101805.75
2022-10-18T22:48:45.840Z,101796.94
2022-10-18T22:51:12.498Z,101790.69
2022-10-18T22:53:40.036Z,101786.16
2022-10-18T22:56:08.621Z,101784.19
2022-10-18T22:58:35.235Z,101790.19
2022-10-18T23:01:04.506Z,101782.84
2022-10-18T23:03:31.387Z,101788.84
2022-10-18T23:05:58.415Z,101785.09
2022-10-18T23:08:25.759Z,101777.75
2022-10-18T23:10:55.475Z,101776.50
2022-10-18T23:13:23.474Z,101781.53
2022-10-18T23:15:50.181Z,101779.50
2022-10-18T23:18:17.688Z,101774.94
2022-10-18T23:20:44.870Z,101774.78
2022-10-18T23:23:12.771Z,101779.97
2022-10-18T23:25:39.427Z,101780.81
2022-10-18T23:28:06.204Z,101787.78
2022-10-18T23:30:32.924Z,101788.69
2022-10-18T23:32:59.462Z,101793.22
2022-10-18T23:35:25.984Z,101783.72
2022-10-18T23:37:52.803Z,101784.69
2022-10-18T23:40:19.444Z,101777.75
2022-10-18T23:42:45.931Z,101774.28
2022-10-18T23:45:12.477Z,101770.75
2022-10-18T23:47:39.008Z,101768.13
2022-10-18T23:50:06.362Z,101761.13
2022-10-18T23:52:32.856Z,101768.25
2022-10-18T23:54:59.321Z,101781.53
2022-10-18T23:57:25.840Z,101781.59
2022-10-18T23:59:52.341Z,101773.81
